| Temperature (°F) | Max | Average | Min |
|---|---|---|---|
| Max Temperature | 94 | 89.73 | 86 |
| Avg Temperature | 82.25 | 79.83 | 76.74 |
| Min Temperature | 77 | 73.83 | 71 |
| Dew Point (°F) | Max | Average | Min |
|---|---|---|---|
| Dew Point | 77 | 71.96 | 63 |
| Precipitation (in) | Max | Average | Min | Sum |
|---|---|---|---|---|
| Precipitation | 2.77 | 0.22 | 0.00 | 6.54 |
| Snowdepth | 0.00 | 0.00 | 0.00 | 0.00 |
| Wind (mph) | Max | Average | Min |
|---|---|---|---|
| Wind | 23 | 7.66 | 0 |
| Gust Wind | 32 | 1.67 | 0 |
| Sea Level Pressure (in) | Max | Average | Min |
|---|---|---|---|
| Sea Level Pressure | 29.98 | 29.85 | 29.66 |
| Date | Temperature (°F) | Dew Point (°F) | Humidity (%) | Wind Speed (mph) | Pressure (in) | Precipitation (in) | ||||||||||
|---|---|---|---|---|---|---|---|---|---|---|---|---|---|---|---|---|
| Max | Avg | Min | Max | Avg | Min | Max | Avg | Min | Max | Avg | Min | Max | Avg | Min | ||
| 9/30/2025 | 86 | 77.8 | 74 | 74 | 71.3 | 70 | 87 | 80.6 | 65 | 18 | 13.2 | 8 | 29.8 | 29.7 | 29.7 | 0.00 |
| 9/29/2025 | 90 | 79.4 | 75 | 75 | 72.8 | 70 | 96 | 81.7 | 55 | 22 | 10.1 | 3 | 29.8 | 29.8 | 29.7 | 0.07 |
| 9/28/2025 | 90 | 79.0 | 74 | 76 | 73.4 | 70 | 96 | 83.6 | 63 | 16 | 7.8 | 0 | 29.8 | 29.8 | 29.8 | 0.00 |
| 9/27/2025 | 90 | 81.7 | 75 | 75 | 71.4 | 68 | 94 | 73.0 | 51 | 10 | 4.3 | 0 | 29.8 | 29.8 | 29.7 | 0.00 |
| 9/26/2025 | 93 | 82.3 | 74 | 74 | 72.4 | 69 | 94 | 74.2 | 45 | 12 | 5.3 | 0 | 29.8 | 29.8 | 29.7 | 0.00 |
| 9/25/2025 | 94 | 81.5 | 75 | 76 | 72.8 | 67 | 100 | 77.2 | 44 | 23 | 5.0 | 0 | 30.0 | 29.9 | 29.8 | 0.00 |
| 9/24/2025 | 93 | 81.0 | 73 | 76 | 72.4 | 68 | 96 | 76.7 | 44 | 16 | 4.3 | 0 | 30.0 | 29.9 | 29.9 | 0.00 |
| 9/23/2025 | 92 | 81.8 | 76 | 75 | 73.8 | 71 | 94 | 77.6 | 50 | 14 | 5.4 | 0 | 30.0 | 29.9 | 29.9 | 0.00 |
| 9/22/2025 | 92 | 81.5 | 74 | 74 | 71.8 | 67 | 97 | 74.3 | 46 | 14 | 6.1 | 0 | 29.9 | 29.9 | 29.8 | 0.00 |
| 9/21/2025 | 91 | 81.0 | 73 | 73 | 70.5 | 66 | 96 | 72.5 | 46 | 13 | 8.8 | 5 | 29.9 | 29.9 | 29.9 | 0.00 |
| 9/20/2025 | 90 | 80.3 | 73 | 73 | 71.3 | 69 | 96 | 75.5 | 53 | 15 | 8.5 | 3 | 29.9 | 29.9 | 29.9 | 0.00 |
| 9/19/2025 | 90 | 79.8 | 72 | 72 | 69.1 | 65 | 97 | 72.1 | 43 | 13 | 8.4 | 5 | 29.9 | 29.9 | 29.8 | 0.00 |
| 9/18/2025 | 87 | 78.5 | 72 | 73 | 70.5 | 68 | 97 | 77.8 | 55 | 14 | 6.7 | 0 | 29.9 | 29.9 | 29.8 | 0.01 |
| 9/17/2025 | 86 | 77.5 | 73 | 74 | 71.2 | 69 | 96 | 81.7 | 57 | 15 | 6.5 | 0 | 30.0 | 29.9 | 29.9 | 0.09 |
| 9/16/2025 | 91 | 79.5 | 73 | 74 | 70.2 | 67 | 90 | 74.4 | 48 | 15 | 7.2 | 3 | 30.0 | 30.0 | 29.9 | 0.00 |
| 9/15/2025 | 90 | 79.0 | 72 | 69 | 67.3 | 65 | 84 | 68.4 | 45 | 13 | 6.3 | 0 | 30.0 | 29.9 | 29.9 | 0.00 |
| 9/14/2025 | 87 | 78.2 | 71 | 70 | 67.6 | 63 | 91 | 71.4 | 53 | 16 | 9.5 | 6 | 29.9 | 29.8 | 29.8 | 0.00 |
| 9/13/2025 | 87 | 78.2 | 72 | 72 | 69.7 | 67 | 93 | 76.2 | 55 | 18 | 10.9 | 5 | 29.9 | 29.8 | 29.8 | 0.00 |
| 9/12/2025 | 86 | 79.1 | 74 | 73 | 71.2 | 70 | 87 | 77.1 | 63 | 21 | 11.3 | 6 | 29.9 | 29.9 | 29.9 | 0.00 |
| 9/11/2025 | 89 | 80.3 | 73 | 72 | 70.4 | 67 | 85 | 72.1 | 52 | 14 | 9.5 | 6 | 30.0 | 29.9 | 29.9 | 0.01 |
| 9/10/2025 | 89 | 78.1 | 74 | 75 | 73.4 | 70 | 100 | 86.1 | 61 | 15 | 5.8 | 0 | 29.9 | 29.9 | 29.8 | 2.26 |
| 9/9/2025 | 87 | 76.7 | 74 | 75 | 73.9 | 73 | 97 | 91.4 | 67 | 15 | 6.3 | 0 | 29.9 | 29.8 | 29.8 | 0.00 |
| 9/8/2025 | 88 | 78.6 | 74 | 76 | 74.2 | 72 | 100 | 86.6 | 65 | 20 | 5.9 | 0 | 29.9 | 29.8 | 29.8 | 2.77 |
| 9/7/2025 | 92 | 80.1 | 72 | 77 | 74.3 | 70 | 100 | 84.1 | 50 | 18 | 5.4 | 0 | 29.9 | 29.9 | 29.8 | 1.21 |
| 9/6/2025 | 93 | 80.3 | 77 | 77 | 75.7 | 72 | 96 | 86.6 | 53 | 17 | 4.7 | 0 | 29.9 | 29.9 | 29.8 | 0.00 |
| 9/5/2025 | 90 | 80.8 | 76 | 76 | 74.4 | 73 | 97 | 81.6 | 61 | 16 | 7.8 | 0 | 29.9 | 29.8 | 29.8 | 0.00 |
| 9/4/2025 | 91 | 81.8 | 75 | 75 | 72.8 | 69 | 96 | 75.9 | 52 | 13 | 7.5 | 0 | 29.8 | 29.8 | 29.7 | 0.00 |
| 9/3/2025 | 91 | 80.8 | 75 | 74 | 72.0 | 69 | 91 | 75.5 | 50 | 14 | 8.6 | 5 | 29.8 | 29.8 | 29.7 | 0.00 |
| 9/2/2025 | 90 | 80.8 | 75 | 75 | 73.1 | 71 | 94 | 78.3 | 57 | 16 | 10.1 | 8 | 29.8 | 29.8 | 29.8 | 0.00 |
| 9/1/2025 | 87 | 79.4 | 75 | 75 | 74.0 | 73 | 94 | 84.1 | 65 | 22 | 12.8 | 6 | 29.8 | 29.8 | 29.8 | 0.12 |